createdAt,value
2022-10-26T00:04:13.832Z,95.04
2022-10-26T00:09:21.160Z,96.19
2022-10-26T00:14:30.030Z,96.38
2022-10-26T00:19:38.292Z,95.70
2022-10-26T00:24:45.331Z,95.94
2022-10-26T00:29:52.498Z,96.11
2022-10-26T00:35:10.321Z,96.31
2022-10-26T00:40:31.057Z,96.39
2022-10-26T00:45:38.250Z,96.25
2022-10-26T00:50:47.912Z,96.14
2022-10-26T00:55:57.689Z,96.33
2022-10-26T01:01:04.834Z,97.09
2022-10-26T01:06:13.362Z,96.91
2022-10-26T01:11:21.078Z,97.08
2022-10-26T01:26:54.096Z,98.49
2022-10-26T01:32:05.005Z,98.15
2022-10-26T01:37:12.408Z,97.87
2022-10-26T01:42:18.159Z,97.44
2022-10-26T01:47:23.694Z,97.66
2022-10-26T01:52:27.717Z,97.35
2022-10-26T01:57:35.111Z,97.08
2022-10-26T02:03:00.371Z,97.05
2022-10-26T02:08:18.959Z,97.35
2022-10-26T02:13:30.393Z,96.34
2022-10-26T02:18:39.492Z,96.21
2022-10-26T02:23:45.989Z,95.62
2022-10-26T02:28:54.886Z,96.26
2022-10-26T02:34:02.434Z,96.48
2022-10-26T02:39:07.857Z,96.89
2022-10-26T02:44:19.223Z,96.73
2022-10-26T02:49:23.369Z,96.54
2022-10-26T02:54:32.662Z,97.67
2022-10-26T02:59:40.540Z,98.71
2022-10-26T03:04:44.391Z,97.74
2022-10-26T03:09:47.851Z,96.86
2022-10-26T03:14:51.646Z,96.75
2022-10-26T03:19:55.572Z,97.29
2022-10-26T03:24:59.161Z,98.43
2022-10-26T03:30:02.726Z,97.29
2022-10-26T03:35:08.048Z,96.87
2022-10-26T03:40:13.588Z,97.00
2022-10-26T03:45:17.603Z,97.31
2022-10-26T03:50:22.331Z,97.84
2022-10-26T03:55:25.965Z,98.52
2022-10-26T04:00:29.921Z,97.79
2022-10-26T04:05:33.302Z,97.38
2022-10-26T04:10:36.913Z,97.20
2022-10-26T04:15:41.052Z,97.43
2022-10-26T04:20:44.560Z,97.02
2022-10-26T04:25:48.279Z,97.21
2022-10-26T04:30:52.219Z,97.70
2022-10-26T04:36:00.931Z,98.37
2022-10-26T04:41:04.642Z,97.36
2022-10-26T04:46:08.052Z,96.53
2022-10-26T04:51:12.295Z,96.61
2022-10-26T04:56:16.155Z,96.76
2022-10-26T05:01:19.756Z,97.91
2022-10-26T05:06:23.502Z,98.22
2022-10-26T05:11:26.959Z,99.23
2022-10-26T05:16:30.459Z,98.49
2022-10-26T05:21:33.934Z,99.56
2022-10-26T05:26:37.351Z,99.82
2022-10-26T05:31:40.823Z,99.78
2022-10-26T05:36:44.589Z,99.01
2022-10-26T05:41:48.025Z,98.59
2022-10-26T05:46:51.487Z,99.41
2022-10-26T05:51:55.167Z,99.56
2022-10-26T05:57:00.122Z,98.31
2022-10-26T06:02:17.372Z,98.08
2022-10-26T06:07:23.107Z,98.50
2022-10-26T06:12:28.159Z,98.53
2022-10-26T06:17:45.464Z,98.91
2022-10-26T06:22:53.319Z,99.42
2022-10-26T06:28:08.187Z,99.78
2022-10-26T06:33:24.623Z,99.81
2022-10-26T06:38:35.268Z,99.64
2022-10-26T06:43:40.811Z,99.81
2022-10-26T06:48:52.608Z,99.99
2022-10-26T06:54:05.361Z,100.00
2022-10-26T06:59:16.799Z,100.00
2022-10-26T07:04:20.377Z,100.00
2022-10-26T07:09:24.065Z,100.00
2022-10-26T07:14:27.538Z,100.00
2022-10-26T07:19:31.630Z,100.00
2022-10-26T07:24:35.309Z,100.00
2022-10-26T07:29:39.195Z,100.00
2022-10-26T07:34:43.121Z,100.00
2022-10-26T07:39:46.715Z,100.00
2022-10-26T07:44:50.249Z,100.00
2022-10-26T07:49:54.378Z,100.00
2022-10-26T07:54:58.039Z,100.00
2022-10-26T08:00:01.614Z,100.00
2022-10-26T08:05:07.417Z,100.00
2022-10-26T08:10:12.115Z,99.92
2022-10-26T08:15:16.603Z,99.15
2022-10-26T08:20:20.774Z,98.44
2022-10-26T08:25:24.827Z,97.41
2022-10-26T08:30:28.623Z,96.66
2022-10-26T08:35:32.968Z,95.44
2022-10-26T08:40:39.652Z,94.61
2022-10-26T08:45:50.740Z,93.90
2022-10-26T08:50:56.890Z,92.85
2022-10-26T08:56:06.299Z,92.25
2022-10-26T09:01:11.258Z,91.74
2022-10-26T09:06:23.587Z,91.55
2022-10-26T09:11:41.903Z,90.94
2022-10-26T09:16:57.752Z,89.46
2022-10-26T09:22:11.130Z,87.83
2022-10-26T09:27:21.421Z,86.10
2022-10-26T09:32:31.057Z,86.30
2022-10-26T09:37:40.835Z,85.46
2022-10-26T09:42:49.795Z,85.10
2022-10-26T09:47:56.871Z,84.74
2022-10-26T09:53:00.369Z,84.38
2022-10-26T09:58:13.095Z,84.02
2022-10-26T10:03:21.394Z,83.41
2022-10-26T10:08:27.250Z,82.71
2022-10-26T10:13:33.885Z,81.52
2022-10-26T10:18:39.508Z,80.64
2022-10-26T10:23:51.371Z,80.16
2022-10-26T10:28:59.543Z,80.45
2022-10-26T10:34:16.798Z,80.03
2022-10-26T10:39:37.663Z,78.16
2022-10-26T10:44:44.239Z,77.65
2022-10-26T10:49:56.300Z,74.69
2022-10-26T10:55:18.215Z,74.11
2022-10-26T11:00:22.507Z,73.03
2022-10-26T11:05:43.210Z,74.24
2022-10-26T11:10:51.456Z,73.41
2022-10-26T11:16:00.465Z,73.37
2022-10-26T11:21:09.173Z,73.73
2022-10-26T11:26:16.913Z,72.78
2022-10-26T11:31:28.031Z,72.92
2022-10-26T11:36:35.963Z,71.84
2022-10-26T11:41:45.825Z,72.01
2022-10-26T11:46:55.401Z,69.76
2022-10-26T11:52:04.632Z,71.15
2022-10-26T11:57:10.569Z,70.68
2022-10-26T12:02:18.197Z,71.64
2022-10-26T12:07:28.132Z,69.20
2022-10-26T12:12:40.836Z,68.73
2022-10-26T12:17:49.141Z,68.57
2022-10-26T12:22:53.293Z,68.26
2022-10-26T12:27:59.868Z,67.88
2022-10-26T12:33:24.383Z,66.00
2022-10-26T12:39:04.927Z,66.67
2022-10-26T12:44:33.346Z,67.45
2022-10-26T12:50:00.539Z,66.84
2022-10-26T12:55:34.391Z,66.96
2022-10-26T13:00:43.979Z,66.14
2022-10-26T13:06:36.853Z,65.54
2022-10-26T13:11:46.647Z,65.58
2022-10-26T13:16:50.612Z,65.79
2022-10-26T13:21:58.053Z,63.60
2022-10-26T13:27:25.295Z,64.13
2022-10-26T13:32:29.897Z,63.93
2022-10-26T13:37:34.949Z,63.37
2022-10-26T13:42:46.031Z,63.90
2022-10-26T13:47:56.572Z,63.30
2022-10-26T13:53:07.274Z,63.01
2022-10-26T13:58:19.492Z,63.43
2022-10-26T14:03:23.289Z,63.29
2022-10-26T14:08:27.007Z,63.05
2022-10-26T14:13:32.400Z,63.65
2022-10-26T14:18:38.026Z,63.54
2022-10-26T14:40:02.128Z,63.99
2022-10-26T14:45:29.819Z,64.11
2022-10-26T14:51:05.304Z,64.28
2022-10-26T14:56:25.211Z,64.35
2022-10-26T15:01:49.019Z,65.03
2022-10-26T15:07:02.431Z,65.54
2022-10-26T15:12:19.443Z,66.50
2022-10-26T15:17:32.817Z,67.31
2022-10-26T15:22:40.193Z,68.40
2022-10-26T15:27:47.404Z,69.34
2022-10-26T15:32:56.182Z,69.90
2022-10-26T15:38:03.323Z,70.53
2022-10-26T15:43:14.110Z,71.81
2022-10-26T15:48:25.698Z,71.82
2022-10-26T15:53:33.021Z,72.24
2022-10-26T15:58:40.145Z,73.06
2022-10-26T16:03:47.829Z,74.08
2022-10-26T16:08:57.795Z,74.47
2022-10-26T16:14:05.083Z,75.28
2022-10-26T16:24:40.786Z,76.59
2022-10-26T16:29:48.299Z,77.20
2022-10-26T16:34:55.279Z,77.72
2022-10-26T16:40:02.181Z,78.40
2022-10-26T16:45:10.550Z,79.16
2022-10-26T16:50:20.619Z,79.53
2022-10-26T16:55:28.048Z,79.92
2022-10-26T17:00:38.059Z,80.86
2022-10-26T17:05:45.266Z,81.64
2022-10-26T17:10:52.322Z,82.46
2022-10-26T17:16:03.888Z,82.67
2022-10-26T17:21:12.001Z,83.03
2022-10-26T17:26:19.160Z,82.95
2022-10-26T17:31:26.880Z,83.94
2022-10-26T17:36:34.071Z,84.57
2022-10-26T17:41:41.496Z,85.25
2022-10-26T17:46:48.893Z,84.89
2022-10-26T17:51:56.091Z,85.84
2022-10-26T17:57:03.013Z,86.34
2022-10-26T18:02:10.118Z,86.42
2022-10-26T18:07:17.146Z,86.24
2022-10-26T18:12:22.574Z,85.47
2022-10-26T18:17:29.579Z,86.27
2022-10-26T18:22:36.539Z,86.74
2022-10-26T18:27:43.856Z,87.25
2022-10-26T18:32:53.557Z,87.69
2022-10-26T18:38:00.689Z,87.65
2022-10-26T18:43:07.638Z,87.54
2022-10-26T18:48:13.040Z,88.33
2022-10-26T18:58:34.609Z,88.65
2022-10-26T19:03:43.928Z,88.35
2022-10-26T19:08:52.075Z,88.88
2022-10-26T19:14:00.574Z,89.63
2022-10-26T19:19:09.414Z,90.10
2022-10-26T19:24:18.982Z,90.31
2022-10-26T19:29:26.321Z,90.33
2022-10-26T19:34:33.975Z,89.90
2022-10-26T19:39:40.917Z,89.88
2022-10-26T19:44:46.275Z,90.15
2022-10-26T19:49:53.383Z,89.83
2022-10-26T19:54:58.721Z,89.80
2022-10-26T20:00:06.973Z,89.63
2022-10-26T20:05:13.973Z,89.64
2022-10-26T20:10:19.517Z,89.91
2022-10-26T20:15:26.599Z,89.78
2022-10-26T20:20:35.141Z,90.12
2022-10-26T20:25:47.200Z,89.45
2022-10-26T20:30:54.126Z,89.72
2022-10-26T20:36:02.643Z,90.43
2022-10-26T20:41:14.132Z,91.07
2022-10-26T20:46:25.510Z,91.46
2022-10-26T20:51:56.750Z,91.45
2022-10-26T20:57:16.173Z,92.12
2022-10-26T21:02:24.028Z,91.83
2022-10-26T21:07:31.178Z,91.86
2022-10-26T21:12:38.629Z,92.72
2022-10-26T21:17:45.579Z,92.74
2022-10-26T21:22:52.843Z,91.98
2022-10-26T21:28:00.336Z,91.90
2022-10-26T21:33:07.427Z,93.22
2022-10-26T21:38:13.403Z,93.00
2022-10-26T21:43:20.343Z,92.38
2022-10-26T21:48:27.837Z,92.03
2022-10-26T21:53:35.307Z,91.87
2022-10-26T21:58:42.409Z,92.21
2022-10-26T22:03:47.987Z,93.22
2022-10-26T22:08:55.749Z,93.04
2022-10-26T22:14:03.099Z,92.64
2022-10-26T22:19:11.296Z,93.47
2022-10-26T22:24:18.669Z,93.86
2022-10-26T22:29:25.828Z,93.38
2022-10-26T22:34:33.464Z,92.65
2022-10-26T22:39:40.447Z,92.93
2022-10-26T22:44:48.233Z,93.31
2022-10-26T22:49:55.476Z,93.39
2022-10-26T22:55:03.095Z,93.23
2022-10-26T23:00:12.602Z,93.54
2022-10-26T23:05:19.751Z,94.33
2022-10-26T23:10:27.443Z,94.48
2022-10-26T23:15:34.608Z,94.89
2022-10-26T23:20:42.655Z,93.80
2022-10-26T23:25:49.746Z,93.19
2022-10-26T23:30:55.061Z,93.45
2022-10-26T23:36:02.412Z,94.08
2022-10-26T23:41:12.185Z,94.09
2022-10-26T23:46:20.242Z,94.87
2022-10-26T23:51:25.988Z,95.03
2022-10-26T23:56:32.961Z,94.91
